sensor_id;sensor_type;location;lat;lon;timestamp;pressure;altitude;pressure_sealevel;temperature;humidity
83027;BME280;72842;56.038;12.706;2023-12-20T00:00:51;100375.66;;;9.62;67.53
83027;BME280;72842;56.038;12.706;2023-12-20T00:03:16;100363.16;;;9.62;67.58
83027;BME280;72842;56.038;12.706;2023-12-20T00:05:42;100362.31;;;9.62;67.63
83027;BME280;72842;56.038;12.706;2023-12-20T00:08:07;100359.63;;;9.62;67.63
83027;BME280;72842;56.038;12.706;2023-12-20T00:10:32;100359.63;;;9.62;68.11
83027;BME280;72842;56.038;12.706;2023-12-20T00:12:58;100357.91;;;9.61;67.93
83027;BME280;72842;56.038;12.706;2023-12-20T00:15:23;100357.91;;;9.61;68.13
83027;BME280;72842;56.038;12.706;2023-12-20T00:17:48;100351.72;;;9.60;67.94
83027;BME280;72842;56.038;12.706;2023-12-20T00:20:14;100351.72;;;9.60;68.17
83027;BME280;72842;56.038;12.706;2023-12-20T00:22:39;100350.28;;;9.56;67.99
83027;BME280;72842;56.038;12.706;2023-12-20T00:25:05;100353.53;;;9.60;67.74
83027;BME280;72842;56.038;12.706;2023-12-20T00:27:30;100352.56;;;9.61;67.74
83027;BME280;72842;56.038;12.706;2023-12-20T00:29:56;100350.03;;;9.59;67.56
83027;BME280;72842;56.038;12.706;2023-12-20T00:32:21;100339.47;;;9.58;67.58
83027;BME280;72842;56.038;12.706;2023-12-20T00:34:46;100343.69;;;9.60;67.74
83027;BME280;72842;56.038;12.706;2023-12-20T00:37:12;100334.97;;;9.58;67.74
83027;BME280;72842;56.038;12.706;2023-12-20T00:39:37;100338.50;;;9.59;67.75
83027;BME280;72842;56.038;12.706;2023-12-20T00:42:03;100326.94;;;9.58;67.61
83027;BME280;72842;56.038;12.706;2023-12-20T00:44:28;100318.94;;;9.58;67.85
83027;BME280;72842;56.038;12.706;2023-12-20T00:46:54;100297.56;;;9.47;67.34
83027;BME280;72842;56.038;12.706;2023-12-20T00:49:19;100307.53;;;9.56;67.16
83027;BME280;72842;56.038;12.706;2023-12-20T00:51:44;100315.41;;;9.58;67.37
83027;BME280;72842;56.038;12.706;2023-12-20T00:54:10;100312.88;;;9.56;67.87
83027;BME280;72842;56.038;12.706;2023-12-20T00:56:35;100304.72;;;9.58;67.63
83027;BME280;72842;56.038;12.706;2023-12-20T00:59:01;100299.53;;;9.56;67.80
83027;BME280;72842;56.038;12.706;2023-12-20T01:01:26;100293.22;;;9.57;67.91
83027;BME280;72842;56.038;12.706;2023-12-20T01:03:52;100294.19;;;9.56;67.38
83027;BME280;72842;56.038;12.706;2023-12-20T01:06:18;100292.34;;;9.57;67.59
83027;BME280;72842;56.038;12.706;2023-12-20T01:08:43;100288.00;;;9.56;67.63
83027;BME280;72842;56.038;12.706;2023-12-20T01:11:08;100289.78;;;9.55;67.56
83027;BME280;72842;56.038;12.706;2023-12-20T01:13:34;100278.25;;;9.55;67.84
83027;BME280;72842;56.038;12.706;2023-12-20T01:16:00;100275.59;;;9.55;67.52
83027;BME280;72842;56.038;12.706;2023-12-20T01:18:26;100278.25;;;9.55;67.57
83027;BME280;72842;56.038;12.706;2023-12-20T01:20:51;100272.91;;;9.55;67.74
83027;BME280;72842;56.038;12.706;2023-12-20T01:23:17;100270.25;;;9.55;67.72
83027;BME280;72842;56.038;12.706;2023-12-20T01:25:42;100249.72;;;9.55;66.96
83027;BME280;72842;56.038;12.706;2023-12-20T01:28:08;100254.34;;;9.53;67.49
83027;BME280;72842;56.038;12.706;2023-12-20T01:30:33;100256.88;;;9.55;67.25
83027;BME280;72842;56.038;12.706;2023-12-20T01:33:00;100244.50;;;9.54;67.60
83027;BME280;72842;56.038;12.706;2023-12-20T01:35:25;100239.16;;;9.54;67.10
83027;BME280;72842;56.038;12.706;2023-12-20T01:37:51;100227.63;;;9.53;67.50
83027;BME280;72842;56.038;12.706;2023-12-20T01:40:16;100231.28;;;9.52;67.50
83027;BME280;72842;56.038;12.706;2023-12-20T01:42:42;100225.94;;;9.52;67.22
83027;BME280;72842;56.038;12.706;2023-12-20T01:45:08;100222.44;;;9.52;67.46
83027;BME280;72842;56.038;12.706;2023-12-20T01:47:33;100216.25;;;9.51;67.59
83027;BME280;72842;56.038;12.706;2023-12-20T01:49:59;100210.19;;;9.49;67.09
83027;BME280;72842;56.038;12.706;2023-12-20T01:52:25;100203.03;;;9.50;66.80
83027;BME280;72842;56.038;12.706;2023-12-20T01:54:51;100204.84;;;9.49;67.42
83027;BME280;72842;56.038;12.706;2023-12-20T01:57:17;100201.44;;;9.47;67.53
83027;BME280;72842;56.038;12.706;2023-12-20T01:59:43;100188.06;;;9.47;67.23
83027;BME280;72842;56.038;12.706;2023-12-20T02:02:09;100188.22;;;9.45;67.23
83027;BME280;72842;56.038;12.706;2023-12-20T02:04:37;100173.16;;;9.44;67.00
83027;BME280;72842;56.038;12.706;2023-12-20T02:07:03;100169.50;;;9.45;67.13
83027;BME280;72842;56.038;12.706;2023-12-20T02:09:28;100172.31;;;9.44;67.68
83027;BME280;72842;56.038;12.706;2023-12-20T02:11:54;100181.19;;;9.44;67.22
83027;BME280;72842;56.038;12.706;2023-12-20T02:14:19;100156.41;;;9.42;67.06
83027;BME280;72842;56.038;12.706;2023-12-20T02:16:45;100164.31;;;9.44;66.86
83027;BME280;72842;56.038;12.706;2023-12-20T02:19:13;100173.28;;;9.43;66.98
83027;BME280;72842;56.038;12.706;2023-12-20T02:21:39;100177.75;;;9.42;67.14
83027;BME280;72842;56.038;12.706;2023-12-20T02:24:05;100169.75;;;9.42;67.50
83027;BME280;72842;56.038;12.706;2023-12-20T02:26:32;100172.56;;;9.41;67.12
83027;BME280;72842;56.038;12.706;2023-12-20T02:28:58;100175.22;;;9.41;67.56
83027;BME280;72842;56.038;12.706;2023-12-20T02:31:24;100171.84;;;9.39;67.13
83027;BME280;72842;56.038;12.706;2023-12-20T02:33:49;100160.44;;;9.37;67.41
83027;BME280;72842;56.038;12.706;2023-12-20T02:36:15;100163.13;;;9.37;66.82
83027;BME280;72842;56.038;12.706;2023-12-20T02:38:40;100148.03;;;9.36;67.45
83027;BME280;72842;56.038;12.706;2023-12-20T02:41:06;100146.34;;;9.35;66.73
83027;BME280;72842;56.038;12.706;2023-12-20T02:43:31;100140.16;;;9.34;67.15
83027;BME280;72842;56.038;12.706;2023-12-20T02:45:57;100131.31;;;9.34;67.22
83027;BME280;72842;56.038;12.706;2023-12-20T02:48:22;100135.81;;;9.33;67.49
83027;BME280;72842;56.038;12.706;2023-12-20T02:50:48;100125.97;;;9.34;67.24
83027;BME280;72842;56.038;12.706;2023-12-20T02:53:14;100127.66;;;9.35;67.51
83027;BME280;72842;56.038;12.706;2023-12-20T02:55:40;100120.50;;;9.35;67.27
83027;BME280;72842;56.038;12.706;2023-12-20T02:58:05;100117.81;;;9.35;66.94
83027;BME280;72842;56.038;12.706;2023-12-20T03:00:31;100120.50;;;9.35;67.02
83027;BME280;72842;56.038;12.706;2023-12-20T03:02:56;100122.19;;;9.36;67.08
83027;BME280;72842;56.038;12.706;2023-12-20T03:05:22;100121.34;;;9.36;67.37
83027;BME280;72842;56.038;12.706;2023-12-20T03:07:47;100117.81;;;9.35;67.42
83027;BME280;72842;56.038;12.706;2023-12-20T03:10:13;100108.00;;;9.36;67.38
83027;BME280;72842;56.038;12.706;2023-12-20T03:12:38;100109.94;;;9.34;67.36
83027;BME280;72842;56.038;12.706;2023-12-20T03:15:04;100103.63;;;9.35;67.22
83027;BME280;72842;56.038;12.706;2023-12-20T03:17:29;100105.44;;;9.34;67.84
83027;BME280;72842;56.038;12.706;2023-12-20T03:19:54;100087.59;;;9.35;67.50
83027;BME280;72842;56.038;12.706;2023-12-20T03:22:20;100077.06;;;9.33;67.54
83027;BME280;72842;56.038;12.706;2023-12-20T03:24:45;100083.25;;;9.34;67.20
83027;BME280;72842;56.038;12.706;2023-12-20T03:27:11;100072.56;;;9.34;67.57
83027;BME280;72842;56.038;12.706;2023-12-20T03:29:36;100060.19;;;9.33;67.34
83027;BME280;72842;56.038;12.706;2023-12-20T03:32:01;100060.19;;;9.33;67.39
83027;BME280;72842;56.038;12.706;2023-12-20T03:34:27;100047.81;;;9.32;67.30
83027;BME280;72842;56.038;12.706;2023-12-20T03:36:54;100045.88;;;9.34;67.40
83027;BME280;72842;56.038;12.706;2023-12-20T03:39:19;100044.19;;;9.33;67.41
83027;BME280;72842;56.038;12.706;2023-12-20T03:41:45;100036.31;;;9.31;67.26
83027;BME280;72842;56.038;12.706;2023-12-20T03:44:10;100035.47;;;9.31;67.52
83027;BME280;72842;56.038;12.706;2023-12-20T03:46:36;100024.88;;;9.29;67.20
83027;BME280;72842;56.038;12.706;2023-12-20T03:49:01;100018.84;;;9.27;67.24
83027;BME280;72842;56.038;12.706;2023-12-20T03:51:27;100011.81;;;9.26;67.46
83027;BME280;72842;56.038;12.706;2023-12-20T03:53:52;100006.59;;;9.25;67.51
83027;BME280;72842;56.038;12.706;2023-12-20T03:56:18;100001.38;;;9.23;67.55
83027;BME280;72842;56.038;12.706;2023-12-20T03:58:43;100011.09;;;9.24;66.65
83027;BME280;72842;56.038;12.706;2023-12-20T04:01:09;100004.03;;;9.23;67.45
83027;BME280;72842;56.038;12.706;2023-12-20T04:03:36;99999.53;;;9.24;67.32
83027;BME280;72842;56.038;12.706;2023-12-20T04:06:01;99995.19;;;9.23;67.61
83027;BME280;72842;56.038;12.706;2023-12-20T04:08:26;100002.22;;;9.24;67.36
83027;BME280;72842;56.038;12.706;2023-12-20T04:10:52;100000.53;;;9.23;67.38
83027;BME280;72842;56.038;12.706;2023-12-20T04:13:17;99995.19;;;9.23;67.57
83027;BME280;72842;56.038;12.706;2023-12-20T04:15:43;99992.41;;;9.24;67.35
83027;BME280;72842;56.038;12.706;2023-12-20T04:18:08;99992.50;;;9.23;67.53
83027;BME280;72842;56.038;12.706;2023-12-20T04:20:34;99989.84;;;9.23;67.72
83027;BME280;72842;56.038;12.706;2023-12-20T04:22:59;99979.31;;;9.21;67.52
83027;BME280;72842;56.038;12.706;2023-12-20T04:25:25;99984.66;;;9.21;67.65
83027;BME280;72842;56.038;12.706;2023-12-20T04:27:50;99963.66;;;9.16;67.64
83027;BME280;72842;56.038;12.706;2023-12-20T04:30:15;99964.41;;;9.18;67.64
83027;BME280;72842;56.038;12.706;2023-12-20T04:32:41;99967.06;;;9.18;67.48
83027;BME280;72842;56.038;12.706;2023-12-20T04:35:06;99960.03;;;9.17;67.65
83027;BME280;72842;56.038;12.706;2023-12-20T04:37:33;99959.19;;;9.17;67.49
83027;BME280;72842;56.038;12.706;2023-12-20T04:39:59;99950.31;;;9.16;67.59
83027;BME280;72842;56.038;12.706;2023-12-20T04:42:24;99952.00;;;9.17;67.48
83027;BME280;72842;56.038;12.706;2023-12-20T04:44:49;99953.72;;;9.18;67.61
83027;BME280;72842;56.038;12.706;2023-12-20T04:47:15;99963.56;;;9.18;67.55
83027;BME280;72842;56.038;12.706;2023-12-20T04:49:41;99944.97;;;9.16;67.43
83027;BME280;72842;56.038;12.706;2023-12-20T04:52:06;99949.47;;;9.16;67.69
83027;BME280;72842;56.038;12.706;2023-12-20T04:54:32;99956.50;;;9.17;67.49
83027;BME280;72842;56.038;12.706;2023-12-20T04:56:57;99946.81;;;9.16;67.91
83027;BME280;72842;56.038;12.706;2023-12-20T04:59:22;99949.34;;;9.17;67.98
83027;BME280;72842;56.038;12.706;2023-12-20T05:01:48;99943.16;;;9.17;67.58
83027;BME280;72842;56.038;12.706;2023-12-20T05:04:13;99938.66;;;9.17;67.43
83027;BME280;72842;56.038;12.706;2023-12-20T05:06:38;99934.31;;;9.16;67.46
83027;BME280;72842;56.038;12.706;2023-12-20T05:09:04;99932.38;;;9.18;67.67
83027;BME280;72842;56.038;12.706;2023-12-20T05:11:29;99935.88;;;9.19;67.62
83027;BME280;72842;56.038;12.706;2023-12-20T05:13:55;99921.69;;;9.18;67.85
83027;BME280;72842;56.038;12.706;2023-12-20T05:16:21;99928.59;;;9.21;67.71
83027;BME280;72842;56.038;12.706;2023-12-20T05:18:48;99917.06;;;9.21;67.50
83027;BME280;72842;56.038;12.706;2023-12-20T05:21:15;99922.41;;;9.21;68.03
83027;BME280;72842;56.038;12.706;2023-12-20T05:23:41;99919.59;;;9.22;67.71
83027;BME280;72842;56.038;12.706;2023-12-20T05:26:06;99925.78;;;9.23;67.71
83027;BME280;72842;56.038;12.706;2023-12-20T05:28:32;99911.59;;;9.22;67.71
83027;BME280;72842;56.038;12.706;2023-12-20T05:30:57;99893.75;;;9.23;67.67
83027;BME280;72842;56.038;12.706;2023-12-20T05:33:23;99902.59;;;9.23;67.18
83027;BME280;72842;56.038;12.706;2023-12-20T05:35:48;99880.91;;;9.16;67.83
83027;BME280;72842;56.038;12.706;2023-12-20T05:38:13;99890.38;;;9.21;67.79
83027;BME280;72842;56.038;12.706;2023-12-20T05:40:39;99887.69;;;9.21;67.66
83027;BME280;72842;56.038;12.706;2023-12-20T05:43:04;99897.53;;;9.20;67.63
83027;BME280;72842;56.038;12.706;2023-12-20T05:45:30;99888.69;;;9.19;67.77
83027;BME280;72842;56.038;12.706;2023-12-20T05:47:55;99889.53;;;9.20;67.49
83027;BME280;72842;56.038;12.706;2023-12-20T05:50:20;99870.13;;;9.18;67.33
83027;BME280;72842;56.038;12.706;2023-12-20T05:52:46;99869.25;;;9.17;67.38
83027;BME280;72842;56.038;12.706;2023-12-20T05:55:12;99868.41;;;9.17;67.47
83027;BME280;72842;56.038;12.706;2023-12-20T05:57:37;99868.31;;;9.18;67.56
83027;BME280;72842;56.038;12.706;2023-12-20T06:00:03;99862.13;;;9.18;67.81
83027;BME280;72842;56.038;12.706;2023-12-20T06:02:28;99862.00;;;9.19;67.46
83027;BME280;72842;56.038;12.706;2023-12-20T06:04:54;99863.81;;;9.19;67.51
83027;BME280;72842;56.038;12.706;2023-12-20T06:07:19;99856.66;;;9.19;67.52
83027;BME280;72842;56.038;12.706;2023-12-20T06:09:45;99853.97;;;9.19;67.75
83027;BME280;72842;56.038;12.706;2023-12-20T06:12:11;99849.47;;;9.20;67.64
83027;BME280;72842;56.038;12.706;2023-12-20T06:14:36;99856.66;;;9.19;67.55
83027;BME280;72842;56.038;12.706;2023-12-20T06:17:02;99848.66;;;9.19;67.54
83027;BME280;72842;56.038;12.706;2023-12-20T06:19:28;99849.47;;;9.20;67.39
83027;BME280;72842;56.038;12.706;2023-12-20T06:21:53;99841.47;;;9.20;67.30
83027;BME280;72842;56.038;12.706;2023-12-20T06:24:19;99842.31;;;9.21;67.76
83027;BME280;72842;56.038;12.706;2023-12-20T06:26:44;99839.78;;;9.19;67.54
83027;BME280;72842;56.038;12.706;2023-12-20T06:29:10;99829.97;;;9.19;67.57
83027;BME280;72842;56.038;12.706;2023-12-20T06:31:35;99829.22;;;9.17;67.63
83027;BME280;72842;56.038;12.706;2023-12-20T06:34:01;99830.22;;;9.16;67.40
83027;BME280;72842;56.038;12.706;2023-12-20T06:36:26;99819.53;;;9.16;67.48
83027;BME280;72842;56.038;12.706;2023-12-20T06:38:52;99820.66;;;9.14;67.74
83027;BME280;72842;56.038;12.706;2023-12-20T06:41:18;99817.00;;;9.15;67.50
83027;BME280;72842;56.038;12.706;2023-12-20T06:43:43;99814.47;;;9.13;67.71
83027;BME280;72842;56.038;12.706;2023-12-20T06:46:09;99811.81;;;9.13;67.57
83027;BME280;72842;56.038;12.706;2023-12-20T06:48:35;99819.81;;;9.13;67.18
83027;BME280;72842;56.038;12.706;2023-12-20T06:51:01;99809.13;;;9.13;67.46
83027;BME280;72842;56.038;12.706;2023-12-20T06:53:30;99806.47;;;9.13;67.57
83027;BME280;72842;56.038;12.706;2023-12-20T06:55:55;99808.28;;;9.13;67.16
83027;BME280;72842;56.038;12.706;2023-12-20T06:58:24;99806.00;;;9.08;67.45
83027;BME280;72842;56.038;12.706;2023-12-20T07:00:50;99808.44;;;9.11;67.71
83027;BME280;72842;56.038;12.706;2023-12-20T07:03:16;99798.72;;;9.10;67.59
83027;BME280;72842;56.038;12.706;2023-12-20T07:05:42;99798.00;;;9.08;67.79
83027;BME280;72842;56.038;12.706;2023-12-20T07:08:07;99799.00;;;9.07;67.79
83027;BME280;72842;56.038;12.706;2023-12-20T07:10:33;99795.34;;;9.08;67.66
83027;BME280;72842;56.038;12.706;2023-12-20T07:12:58;99791.69;;;9.09;67.69
83027;BME280;72842;56.038;12.706;2023-12-20T07:15:23;99791.69;;;9.09;67.75
83027;BME280;72842;56.038;12.706;2023-12-20T07:17:49;99790.69;;;9.10;67.67
83027;BME280;72842;56.038;12.706;2023-12-20T07:20:14;99790.69;;;9.10;67.82
83027;BME280;72842;56.038;12.706;2023-12-20T07:22:40;99791.81;;;9.08;67.67
83027;BME280;72842;56.038;12.706;2023-12-20T07:25:06;99784.53;;;9.10;67.63
83027;BME280;72842;56.038;12.706;2023-12-20T07:27:32;99797.03;;;9.09;67.68
83027;BME280;72842;56.038;12.706;2023-12-20T07:29:57;99797.03;;;9.09;67.61
83027;BME280;72842;56.038;12.706;2023-12-20T07:32:23;99785.50;;;9.09;67.80
83027;BME280;72842;56.038;12.706;2023-12-20T07:34:48;99785.50;;;9.09;67.83
83027;BME280;72842;56.038;12.706;2023-12-20T07:37:14;99785.50;;;9.09;67.51
83027;BME280;72842;56.038;12.706;2023-12-20T07:39:40;99786.50;;;9.08;67.61
83027;BME280;72842;56.038;12.706;2023-12-20T07:42:08;99779.31;;;9.08;67.39
83027;BME280;72842;56.038;12.706;2023-12-20T07:44:34;99774.00;;;9.08;67.84
83027;BME280;72842;56.038;12.706;2023-12-20T07:47:03;99762.59;;;9.06;67.46
83027;BME280;72842;56.038;12.706;2023-12-20T07:49:30;99771.47;;;9.07;67.14
83027;BME280;72842;56.038;12.706;2023-12-20T07:51:55;99759.81;;;9.08;67.37
83027;BME280;72842;56.038;12.706;2023-12-20T07:54:21;99764.28;;;9.07;67.24
83027;BME280;72842;56.038;12.706;2023-12-20T07:56:46;99757.28;;;9.06;67.55
83027;BME280;72842;56.038;12.706;2023-12-20T07:59:12;99772.31;;;9.07;67.38
83027;BME280;72842;56.038;12.706;2023-12-20T08:01:37;99759.94;;;9.06;67.19
83027;BME280;72842;56.038;12.706;2023-12-20T08:04:03;99761.75;;;9.06;67.11
83027;BME280;72842;56.038;12.706;2023-12-20T08:06:28;99769.78;;;9.06;67.13
83027;BME280;72842;56.038;12.706;2023-12-20T08:08:54;99773.28;;;9.06;67.42
83027;BME280;72842;56.038;12.706;2023-12-20T08:11:19;99772.44;;;9.06;66.92
83027;BME280;72842;56.038;12.706;2023-12-20T08:13:45;99752.03;;;8.95;67.23
83027;BME280;72842;56.038;12.706;2023-12-20T08:16:10;99767.94;;;9.06;67.31
83027;BME280;72842;56.038;12.706;2023-12-20T08:18:38;99774.13;;;9.07;67.17
83027;BME280;72842;56.038;12.706;2023-12-20T08:21:04;99774.13;;;9.07;67.19
83027;BME280;72842;56.038;12.706;2023-12-20T08:23:29;99782.13;;;9.07;67.41
83027;BME280;72842;56.038;12.706;2023-12-20T08:25:55;99769.78;;;9.06;67.31
83027;BME280;72842;56.038;12.706;2023-12-20T08:28:20;99776.78;;;9.07;67.14
83027;BME280;72842;56.038;12.706;2023-12-20T08:30:45;99776.78;;;9.07;67.11
83027;BME280;72842;56.038;12.706;2023-12-20T08:33:11;99769.63;;;9.07;67.52
83027;BME280;72842;56.038;12.706;2023-12-20T08:35:39;99772.31;;;9.07;67.31
83027;BME280;72842;56.038;12.706;2023-12-20T08:38:05;99774.00;;;9.08;67.17
83027;BME280;72842;56.038;12.706;2023-12-20T08:40:31;99769.63;;;9.07;67.30
83027;BME280;72842;56.038;12.706;2023-12-20T08:42:56;99758.25;;;9.05;67.20
83027;BME280;72842;56.038;12.706;2023-12-20T08:45:21;99760.78;;;9.07;66.66
83027;BME280;72842;56.038;12.706;2023-12-20T08:47:47;99760.78;;;9.07;67.02
83027;BME280;72842;56.038;12.706;2023-12-20T08:50:13;99758.97;;;9.07;67.02
83027;BME280;72842;56.038;12.706;2023-12-20T08:52:38;99754.59;;;9.06;66.95
83027;BME280;72842;56.038;12.706;2023-12-20T08:55:04;99754.59;;;9.06;66.87
83027;BME280;72842;56.038;12.706;2023-12-20T08:57:29;99748.28;;;9.07;66.95
83027;BME280;72842;56.038;12.706;2023-12-20T08:59:57;99756.28;;;9.07;66.74
83027;BME280;72842;56.038;12.706;2023-12-20T09:02:22;99752.63;;;9.08;66.47
83027;BME280;72842;56.038;12.706;2023-12-20T09:04:47;99752.63;;;9.08;67.07
83027;BME280;72842;56.038;12.706;2023-12-20T09:07:22;99748.13;;;9.09;66.57
83027;BME280;72842;56.038;12.706;2023-12-20T09:09:48;99748.84;;;9.11;66.64
83027;BME280;72842;56.038;12.706;2023-12-20T09:12:14;99741.72;;;9.11;66.65
83027;BME280;72842;56.038;12.706;2023-12-20T09:14:39;99730.97;;;9.02;66.47
83027;BME280;72842;56.038;12.706;2023-12-20T09:17:04;99736.09;;;9.14;66.47
83027;BME280;72842;56.038;12.706;2023-12-20T09:19:30;99740.44;;;9.15;66.32
83027;BME280;72842;56.038;12.706;2023-12-20T09:21:55;99741.28;;;9.16;66.58
83027;BME280;72842;56.038;12.706;2023-12-20T09:24:21;99742.25;;;9.15;66.44
83027;BME280;72842;56.038;12.706;2023-12-20T09:26:46;99747.75;;;9.13;66.48
83027;BME280;72842;56.038;12.706;2023-12-20T09:29:12;99742.25;;;9.15;66.80
83027;BME280;72842;56.038;12.706;2023-12-20T09:31:40;99735.25;;;9.14;66.55
83027;BME280;72842;56.038;12.706;2023-12-20T09:34:06;99737.91;;;9.14;66.66
83027;BME280;72842;56.038;12.706;2023-12-20T09:36:32;99746.06;;;9.12;66.44
83027;BME280;72842;56.038;12.706;2023-12-20T09:39:01;99742.56;;;9.12;66.09
83027;BME280;72842;56.038;12.706;2023-12-20T09:41:28;99743.41;;;9.12;66.27
83027;BME280;72842;56.038;12.706;2023-12-20T09:43:58;99728.47;;;9.10;66.46
83027;BME280;72842;56.038;12.706;2023-12-20T09:46:26;99734.94;;;9.07;66.64
83027;BME280;72842;56.038;12.706;2023-12-20T09:48:55;99726.66;;;9.10;66.40
83027;BME280;72842;56.038;12.706;2023-12-20T09:51:20;99729.31;;;9.10;66.40
83027;BME280;72842;56.038;12.706;2023-12-20T09:53:47;99721.19;;;9.12;66.36
83027;BME280;72842;56.038;12.706;2023-12-20T09:56:14;99720.34;;;9.11;66.73
83027;BME280;72842;56.038;12.706;2023-12-20T09:58:40;99720.22;;;9.13;66.33
83027;BME280;72842;56.038;12.706;2023-12-20T10:01:06;99715.88;;;9.12;66.79
83027;BME280;72842;56.038;12.706;2023-12-20T10:03:33;99707.00;;;9.11;66.48
83027;BME280;72842;56.038;12.706;2023-12-20T10:06:00;99712.22;;;9.13;66.53
83027;BME280;72842;56.038;12.706;2023-12-20T10:08:25;99690.84;;;9.13;66.53
83027;BME280;72842;56.038;12.706;2023-12-20T10:10:51;99698.03;;;9.12;66.72
83027;BME280;72842;56.038;12.706;2023-12-20T10:13:17;99694.38;;;9.13;66.69
83027;BME280;72842;56.038;12.706;2023-12-20T10:15:42;99683.84;;;9.12;66.67
83027;BME280;72842;56.038;12.706;2023-12-20T10:18:08;99684.69;;;9.12;66.60
83027;BME280;72842;56.038;12.706;2023-12-20T10:20:33;99663.31;;;9.12;66.44
83027;BME280;72842;56.038;12.706;2023-12-20T10:23:00;99671.34;;;9.12;66.67
83027;BME280;72842;56.038;12.706;2023-12-20T10:25:26;99655.31;;;9.12;66.78
83027;BME280;72842;56.038;12.706;2023-12-20T10:28:12;99658.97;;;9.11;66.67
83027;BME280;72842;56.038;12.706;2023-12-20T10:30:38;99648.16;;;9.13;67.09
83027;BME280;72842;56.038;12.706;2023-12-20T10:33:06;99653.50;;;9.13;66.67
83027;BME280;72842;56.038;12.706;2023-12-20T10:35:32;99645.63;;;9.11;66.81
83027;BME280;72842;56.038;12.706;2023-12-20T10:38:05;99641.97;;;9.12;66.47
83027;BME280;72842;56.038;12.706;2023-12-20T10:40:34;99636.63;;;9.12;66.82
83027;BME280;72842;56.038;12.706;2023-12-20T10:43:02;99630.44;;;9.12;66.64
83027;BME280;72842;56.038;12.706;2023-12-20T10:45:27;99625.13;;;9.12;66.75
83027;BME280;72842;56.038;12.706;2023-12-20T10:47:53;99624.13;;;9.13;66.60
83027;BME280;72842;56.038;12.706;2023-12-20T10:50:19;99624.13;;;9.13;66.82
83027;BME280;72842;56.038;12.706;2023-12-20T10:52:46;99626.25;;;9.19;70.10
83027;BME280;72842;56.038;12.706;2023-12-20T10:55:12;99627.81;;;9.60;71.66
83027;BME280;72842;56.038;12.706;2023-12-20T10:57:38;99620.38;;;9.83;71.77
83027;BME280;72842;56.038;12.706;2023-12-20T11:00:06;99610.09;;;9.88;69.99
83027;BME280;72842;56.038;12.706;2023-12-20T11:02:39;99602.50;;;9.84;69.46
83027;BME280;72842;56.038;12.706;2023-12-20T11:07:43;99597.59;;;9.69;69.85
83027;BME280;72842;56.038;12.706;2023-12-20T11:10:19;99588.31;;;9.64;70.06
83027;BME280;72842;56.038;12.706;2023-12-20T11:12:56;99588.06;;;9.57;69.92
83027;BME280;72842;56.038;12.706;2023-12-20T11:15:22;99580.75;;;9.50;69.52
83027;BME280;72842;56.038;12.706;2023-12-20T11:17:56;99589.59;;;9.50;69.87
83027;BME280;72842;56.038;12.706;2023-12-20T11:20:24;99579.19;;;9.47;70.02
83027;BME280;72842;56.038;12.706;2023-12-20T11:23:00;99575.13;;;9.43;70.26
83027;BME280;72842;56.038;12.706;2023-12-20T11:25:26;99572.72;;;9.40;70.35
83027;BME280;72842;56.038;12.706;2023-12-20T11:28:10;99594.38;;;9.37;70.04
83027;BME280;72842;56.038;12.706;2023-12-20T11:30:46;99584.81;;;9.34;70.41
83027;BME280;72842;56.038;12.706;2023-12-20T11:33:13;99572.75;;;9.30;70.37
83027;BME280;72842;56.038;12.706;2023-12-20T11:35:40;99588.59;;;9.32;70.15
83027;BME280;72842;56.038;12.706;2023-12-20T11:38:08;99583.28;;;9.32;69.99
83027;BME280;72842;56.038;12.706;2023-12-20T11:40:34;99576.38;;;9.29;70.09
83027;BME280;72842;56.038;12.706;2023-12-20T11:43:00;99579.88;;;9.30;70.18
83027;BME280;72842;56.038;12.706;2023-12-20T11:45:25;99579.03;;;9.29;70.46
83027;BME280;72842;56.038;12.706;2023-12-20T11:47:52;99576.50;;;9.28;69.97
83027;BME280;72842;56.038;12.706;2023-12-20T11:50:22;99571.19;;;9.28;69.63
83027;BME280;72842;56.038;12.706;2023-12-20T11:52:48;99573.84;;;9.28;70.12
83027;BME280;72842;56.038;12.706;2023-12-20T11:55:14;99567.66;;;9.27;69.76
83027;BME280;72842;56.038;12.706;2023-12-20T11:57:40;99558.13;;;9.25;70.12
83027;BME280;72842;56.038;12.706;2023-12-20T12:00:06;99558.81;;;9.27;69.92
83027;BME280;72842;56.038;12.706;2023-12-20T12:02:32;99545.47;;;9.27;70.29
83027;BME280;72842;56.038;12.706;2023-12-20T12:04:59;99548.41;;;9.24;69.69
83027;BME280;72842;56.038;12.706;2023-12-20T12:07:25;99548.13;;;9.27;69.93
83027;BME280;72842;56.038;12.706;2023-12-20T12:09:51;99556.16;;;9.27;69.96
83027;BME280;72842;56.038;12.706;2023-12-20T12:12:17;99546.47;;;9.26;70.02
83027;BME280;72842;56.038;12.706;2023-12-20T12:14:46;99551.78;;;9.26;70.00
83027;BME280;72842;56.038;12.706;2023-12-20T12:17:12;99548.41;;;9.24;70.25
83027;BME280;72842;56.038;12.706;2023-12-20T12:19:41;99552.78;;;9.25;70.11
83027;BME280;72842;56.038;12.706;2023-12-20T12:22:14;99545.34;;;9.18;70.36
83027;BME280;72842;56.038;12.706;2023-12-20T12:24:43;99550.38;;;9.22;70.20
83027;BME280;72842;56.038;12.706;2023-12-20T12:27:09;99548.69;;;9.21;70.29
83027;BME280;72842;56.038;12.706;2023-12-20T12:29:35;99549.09;;;9.16;70.40
83027;BME280;72842;56.038;12.706;2023-12-20T12:32:05;99549.69;;;9.19;70.63
83027;BME280;72842;56.038;12.706;2023-12-20T12:34:31;99564.72;;;9.21;70.34
83027;BME280;72842;56.038;12.706;2023-12-20T12:36:57;99560.22;;;9.21;70.31
83027;BME280;72842;56.038;12.706;2023-12-20T12:39:25;99562.88;;;9.21;70.32
83027;BME280;72842;56.038;12.706;2023-12-20T12:41:51;99552.22;;;9.21;70.29
83027;BME280;72842;56.038;12.706;2023-12-20T12:44:17;99556.84;;;9.19;70.14
83027;BME280;72842;56.038;12.706;2023-12-20T12:46:44;99559.38;;;9.21;70.41
83027;BME280;72842;56.038;12.706;2023-12-20T12:49:09;99548.69;;;9.21;70.22
83027;BME280;72842;56.038;12.706;2023-12-20T12:51:35;99562.19;;;9.19;70.20
83027;BME280;72842;56.038;12.706;2023-12-20T12:54:00;99549.53;;;9.21;70.01